sensor_id;sensor_type;location;lat;lon;timestamp;pressure;altitude;pressure_sealevel;temperature;humidity
61740;BME280;47645;45.288;12.038;2023-01-26T00:00:36;1019.0243012652113;;;2.7263671875;86.48562622199535
61740;BME280;47645;45.288;12.038;2023-01-26T00:10:36;1019.0360172417369;;;2.690625;86.38964193508315
61740;BME280;47645;45.288;12.038;2023-01-26T00:20:36;1018.9111915475874;;;2.665234375;86.23506185858744
61740;BME280;47645;45.288;12.038;2023-01-26T00:30:36;1018.8093497892852;;;2.6091796875;86.4496620709929
61740;BME280;47645;45.288;12.038;2023-01-26T00:40:36;1018.7398377271835;;;2.558203125;86.6237021406923
61740;BME280;47645;45.288;12.038;2023-01-26T00:50:36;1018.7015657694888;;;2.3033203125;86.92468605183967
61740;BME280;47645;45.288;12.038;2023-01-26T01:00:37;1018.6532807340493;;;2.3033203125;86.94157486107841
61740;BME280;47645;45.288;12.038;2023-01-26T01:10:37;1018.6322326947311;;;2.374609375;87.17807207850673
61740;BME280;47645;45.288;12.038;2023-01-26T01:20:39;1018.5469099436922;;;2.226953125;86.89459456782484
61740;BME280;47645;45.288;12.038;2023-01-26T01:30:37;1018.4389069437472;;;2.247265625;86.98386102375042
61740;BME280;47645;45.288;12.038;2023-01-26T01:40:41;1018.3868311517128;;;2.1708984375;86.75166221118288
61740;BME280;47645;45.288;12.038;2023-01-26T01:50:38;1018.3383533394418;;;2.2013671875;86.62493607190402
61740;BME280;47645;45.288;12.038;2023-01-26T02:00:38;1018.2530163650599;;;2.03828125;86.98581625542685
61740;BME280;47645;45.288;12.038;2023-01-26T02:10:38;1018.1322294725805;;;1.9669921875;87.422356825994
61740;BME280;47645;45.288;12.038;2023-01-26T02:20:43;1018.0819890195274;;;2.023046875;87.21918207474602
61740;BME280;47645;45.288;12.038;2023-01-26T02:30:39;1017.910378879239;;;2.0486328125;87.10218458689297
61740;BME280;47645;45.288;12.038;2023-01-26T02:40:44;1017.7038695550752;;;1.905859375;87.2258172466625
61740;BME280;47645;45.288;12.038;2023-01-26T02:50:39;1017.6851791391937;;;1.8650390625;87.67663343471948
61740;BME280;47645;45.288;12.038;2023-01-26T03:00:42;1017.3988917895347;;;1.82421875;87.39574971632996
61740;BME280;47645;45.288;12.038;2023-01-26T03:10:40;1017.2885308986255;;;1.992578125;86.54022509819926
61740;BME280;47645;45.288;12.038;2023-01-26T03:30:40;1017.1169589877729;;;1.7275390625;87.47584074828659
61740;BME280;47645;45.288;12.038;2023-01-26T04:00:41;1016.743329381182;;;1.895703125;85.35122927934023
61740;BME280;47645;45.288;12.038;2023-01-26T04:10:41;1016.7016249938519;;;1.99765625;84.65210161652763
61740;BME280;47645;45.288;12.038;2023-01-26T04:21:47;1016.6409580102369;;;1.92109375;84.40460870870791
61740;BME280;47645;45.288;12.038;2023-01-26T04:30:42;1016.5509951222475;;;1.90078125;84.83183369140842
61740;BME280;47645;45.288;12.038;2023-01-26T04:40:42;1016.4590950201778;;;1.936328125;83.97786065446034
61740;BME280;47645;45.288;12.038;2023-01-26T04:50:42;1016.4540349050526;;;1.916015625;83.8984549464606
61740;BME280;47645;45.288;12.038;2023-01-26T05:00:43;1016.4523728297031;;;2.002734375;83.106252819694
61740;BME280;47645;45.288;12.038;2023-01-26T05:10:43;1016.361364909538;;;2.028125;83.31382401265742
61740;BME280;47645;45.288;12.038;2023-01-26T05:20:43;1016.2722518195847;;;1.9517578125;82.81764613141571
61740;BME280;47645;45.288;12.038;2023-01-26T05:30:43;1016.338117198155;;;1.92109375;82.57364315038393
61740;BME280;47645;45.288;12.038;2023-01-26T05:40:44;1016.3599769237404;;;1.82421875;83.54134423090872
61740;BME280;47645;45.288;12.038;2023-01-26T05:50:44;1016.286695538213;;;1.8294921875;83.59133261345669
61740;BME280;47645;45.288;12.038;2023-01-26T06:00:44;1016.2526928494768;;;1.8294921875;83.9931456732975
61740;BME280;47645;45.288;12.038;2023-01-26T06:10:44;1016.3160930626872;;;1.808984375;84.89689167356836
61740;BME280;47645;45.288;12.038;2023-01-26T06:20:44;1016.2120987377484;;;1.58984375;86.4347394804822
61740;BME280;47645;45.288;12.038;2023-01-26T06:30:45;1016.1787196868718;;;1.7376953125;86.24704544932891
61740;BME280;47645;45.288;12.038;2023-01-26T06:40:45;1016.2255826445569;;;1.80390625;87.04679599525765
61740;BME280;47645;45.288;12.038;2023-01-26T06:50:45;1016.2814252236703;;;1.788671875;85.2202308157451
61740;BME280;47645;45.288;12.038;2023-01-26T07:00:45;1016.2793495988001;;;1.7734375;85.86478629858023
61740;BME280;47645;45.288;12.038;2023-01-26T07:10:45;1016.2664591036265;;;1.895703125;85.88975916267144
61740;BME280;47645;45.288;12.038;2023-01-26T07:20:45;1016.2621248011238;;;2.1046875;85.42508819922034
61740;BME280;47645;45.288;12.038;2023-01-26T07:30:47;1016.2133646226418;;;2.2421875;85.02303590733497
61740;BME280;47645;45.288;12.038;2023-01-26T07:40:46;1016.1715308897976;;;2.4765625;83.73202103325858
61740;BME280;47645;45.288;12.038;2023-01-26T07:50:48;1016.1301197440719;;;2.8587890625;81.17772666110065
61740;BME280;47645;45.288;12.038;2023-01-26T08:00:46;1016.100970185276;;;2.919921875;80.0882948814292
61740;BME280;47645;45.288;12.038;2023-01-26T08:10:47;1016.1486203589827;;;3.220703125;79.5841932952317
61740;BME280;47645;45.288;12.038;2023-01-26T08:20:49;1016.1234005920472;;;3.2818359375;79.23567686485498
61740;BME280;47645;45.288;12.038;2023-01-26T08:30:47;1016.2340596290506;;;3.3787109375;79.56771986386026
61740;BME280;47645;45.288;12.038;2023-01-26T08:40:50;1016.2312571591478;;;3.4908203125;79.14119064730089
61740;BME280;47645;45.288;12.038;2023-01-26T08:50:48;1016.1329061726874;;;3.8322265625;76.13009676566479
61740;BME280;47645;45.288;12.038;2023-01-26T09:00:48;1016.0875652313982;;;4.331640625;73.0652825640169
61740;BME280;47645;45.288;12.038;2023-01-26T09:10:48;1016.017095724395;;;4.7037109375;71.01855913778154
61740;BME280;47645;45.288;12.038;2023-01-26T09:20:50;1015.9818475095547;;;5.0501953125;69.22712413161628
61740;BME280;47645;45.288;12.038;2023-01-26T09:30:48;1016.050875209154;;;5.2541015625;66.19042393311612
61740;BME280;47645;45.288;12.038;2023-01-26T09:41:03;1015.9765769019572;;;5.6822265625;65.79307079362958
61740;BME280;47645;45.288;12.038;2023-01-26T09:50:54;1015.9919175599957;;;6.0236328125;65.6571577955899
61740;BME280;47645;45.288;12.038;2023-01-26T10:00:53;1016.0157541687906;;;6.308984375;63.52356053584572
61740;BME280;47645;45.288;12.038;2023-01-26T10:10:53;1015.9041626838797;;;6.6861328125;62.66312630545309
61740;BME280;47645;45.288;12.038;2023-01-26T10:20:53;1015.9160744990309;;;6.823828125;60.2918536781394
61740;BME280;47645;45.288;12.038;2023-01-26T10:30:51;1015.7702255031446;;;6.9767578125;59.07157915990577
61740;BME280;47645;45.288;12.038;2023-01-26T10:40:51;1015.6497483933285;;;7.1958984375;58.22959774548952
61740;BME280;47645;45.288;12.038;2023-01-26T10:50:52;1015.4270047879759;;;7.262109375;58.5483887855757
61740;BME280;47645;45.288;12.038;2023-01-26T11:00:55;1015.4556515356933;;;7.369140625;58.58685000114266
61740;BME280;47645;45.288;12.038;2023-01-26T11:10:52;1015.1543405270522;;;7.3640625;57.083581046244994
61740;BME280;47645;45.288;12.038;2023-01-26T11:20:56;1015.0307567179575;;;7.6443359375;57.535237422114506
61740;BME280;47645;45.288;12.038;2023-01-26T11:31:02;1014.8334831791879;;;7.9705078125;57.1838125780132
61740;BME280;47645;45.288;12.038;2023-01-26T11:41:00;1014.6676466891784;;;7.715625;56.52829569298418
61740;BME280;47645;45.288;12.038;2023-01-26T11:50:56;1014.4616429646071;;;8.051953125;56.38146441327281
61740;BME280;47645;45.288;12.038;2023-01-26T12:00:56;1014.3840117590357;;;7.7462890625;55.819080269084154
61740;BME280;47645;45.288;12.038;2023-01-26T12:11:00;1014.307201311315;;;8.0826171875;55.54386669618382
61740;BME280;47645;45.288;12.038;2023-01-26T12:20:59;1014.1663182476536;;;8.15390625;54.82447297657586
61740;BME280;47645;45.288;12.038;2023-01-26T12:31:03;1013.9418183681477;;;7.9501953125;55.61059712447945
61740;BME280;47645;45.288;12.038;2023-01-26T12:41:05;1013.7922219678238;;;7.9908203125;55.379590270997554
61740;BME280;47645;45.288;12.038;2023-01-26T12:51:00;1013.628100275588;;;8.439453125;57.50970802425173
61740;BME280;47645;45.288;12.038;2023-01-26T13:01:00;1013.5315124483484;;;8.5005859375;55.92279982968802
61740;BME280;47645;45.288;12.038;2023-01-26T13:11:00;1013.3940162244116;;;8.3068359375;54.2356803082747
61740;BME280;47645;45.288;12.038;2023-01-26T13:20:57;1013.324987243334;;;8.449609375;53.47309122007447
61740;BME280;47645;45.288;12.038;2023-01-26T13:31:02;1013.1913971066492;;;8.449609375;58.405856911770414
61740;BME280;47645;45.288;12.038;2023-01-26T13:40:59;1013.1769598584552;;;8.266015625;56.86328965513546
61740;BME280;47645;45.288;12.038;2023-01-26T13:50:59;1013.2305420435783;;;8.128515625;56.74054389075687
61740;BME280;47645;45.288;12.038;2023-01-26T14:01:01;1013.2854469283914;;;7.9603515625;57.78343281156647
61740;BME280;47645;45.288;12.038;2023-01-26T14:11:03;1013.2503899144868;;;8.148828125;58.52981385063243
61740;BME280;47645;45.288;12.038;2023-01-26T14:21:02;1013.0764421241339;;;7.9501953125;60.68982878563283
61740;BME280;47645;45.288;12.038;2023-01-26T14:31:03;1013.0906163803418;;;7.5626953125;57.23702114368257
61740;BME280;47645;45.288;12.038;2023-01-26T14:41:01;1013.0064868399625;;;8.240625;63.76820191673773
61740;BME280;47645;45.288;12.038;2023-01-26T14:51:04;1012.9634630738333;;;8.266015625;63.402798100955835
61740;BME280;47645;45.288;12.038;2023-01-26T15:01:04;1012.8530220743357;;;7.710546875;59.2964817678771
61740;BME280;47645;45.288;12.038;2023-01-26T15:21:11;1012.9196064927066;;;7.3181640625;65.89028927758434
61740;BME280;47645;45.288;12.038;2023-01-26T15:31:04;1012.9674480521453;;;7.155078125;60.88541363952136
61740;BME280;47645;45.288;12.038;2023-01-26T15:41:07;1013.013660631849;;;6.9001953125;60.93799353353575
61740;BME280;47645;45.288;12.038;2023-01-26T15:51:09;1012.9664129475028;;;7.027734375;64.18082356672859
61740;BME280;47645;45.288;12.038;2023-01-26T16:01:05;1012.9929215381411;;;6.2580078125;66.36756820621254
61740;BME280;47645;45.288;12.038;2023-01-26T16:11:09;1012.9732501999742;;;6.288671875;71.62626430047509
61740;BME280;47645;45.288;12.038;2023-01-26T16:21:15;1013.0174738789173;;;5.763671875;66.96771899948045
61740;BME280;47645;45.288;12.038;2023-01-26T16:31:12;1013.0542051679536;;;5.666796875;73.56217425253688
61740;BME280;47645;45.288;12.038;2023-01-26T16:41:13;1013.1091138385484;;;5.6720703125;71.22053314962082
61740;BME280;47645;45.288;12.038;2023-01-26T16:51:14;1013.2085133010964;;;5.2845703125;75.19371898029559
61740;BME280;47645;45.288;12.038;2023-01-26T17:01:16;1013.2153803635911;;;5.2642578125;72.11130132601784
61740;BME280;47645;45.288;12.038;2023-01-26T17:11:15;1013.2841897578854;;;4.6068359375;71.89411826755963
61740;BME280;47645;45.288;12.038;2023-01-26T17:21:08;1013.2987900793149;;;4.41328125;72.36631976755433
61740;BME280;47645;45.288;12.038;2023-01-26T17:31:11;1013.3254291890261;;;4.321484375;72.16147243790482
61740;BME280;47645;45.288;12.038;2023-01-26T17:41:08;1013.3617558465268;;;4.331640625;72.7748608792858
61740;BME280;47645;45.288;12.038;2023-01-26T17:51:10;1013.3787687061798;;;4.351953125;73.30937232747412
61740;BME280;47645;45.288;12.038;2023-01-26T18:01:09;1013.4731276989977;;;4.341796875;73.69578999606857
61740;BME280;47645;45.288;12.038;2023-01-26T18:11:11;1013.5034326872136;;;4.2654296875;74.65952982725385
61740;BME280;47645;45.288;12.038;2023-01-26T18:21:12;1013.5025355785001;;;4.33671875;73.89257230787976
61740;BME280;47645;45.288;12.038;2023-01-26T18:31:11;1013.5449456455352;;;4.2654296875;74.44048175776896
61740;BME280;47645;45.288;12.038;2023-01-26T18:41:12;1013.6302971016889;;;4.127734375;75.44158123965958
61740;BME280;47645;45.288;12.038;2023-01-26T18:51:10;1013.6745853980194;;;4.1125;74.24692321559364
61740;BME280;47645;45.288;12.038;2023-01-26T19:01:12;1013.6853229549538;;;4.0412109375;74.27313410993634
61740;BME280;47645;45.288;12.038;2023-01-26T19:11:11;1013.7305965947459;;;4.117578125;74.40065676551232
61740;BME280;47645;45.288;12.038;2023-01-26T19:21:11;1013.6934422180013;;;4.0412109375;74.18599300868117
61740;BME280;47645;45.288;12.038;2023-01-26T19:31:11;1013.7216455661697;;;3.77109375;75.39821149866286
61740;BME280;47645;45.288;12.038;2023-01-26T19:41:12;1013.7265870275997;;;3.6232421875;75.7357063804709
61740;BME280;47645;45.288;12.038;2023-01-26T19:51:13;1013.6367726556635;;;3.5314453125;76.0875944661369
61740;BME280;47645;45.288;12.038;2023-01-26T20:01:12;1013.6362249554743;;;3.3736328125;76.51009556195416
61740;BME280;47645;45.288;12.038;2023-01-26T20:11:12;1013.6010408559372;;;3.22578125;75.57952658199494
61740;BME280;47645;45.288;12.038;2023-01-26T20:21:12;1013.6408566279447;;;3.1595703125;74.81945828171959
61740;BME280;47645;45.288;12.038;2023-01-26T20:31:17;1013.6888673216523;;;3.0779296875;73.7148933422407
61740;BME280;47645;45.288;12.038;2023-01-26T20:41:15;1013.77919835662;;;3.016796875;72.62718842099797
61740;BME280;47645;45.288;12.038;2023-01-26T20:51:15;1013.7424886070273;;;2.899609375;72.45393950077388
61740;BME280;47645;45.288;12.038;2023-01-26T21:01:15;1013.7385072803763;;;2.58359375;72.58499706302734
61740;BME280;47645;45.288;12.038;2023-01-26T21:11:15;1013.7612151627192;;;2.4103515625;72.53772462379618
61740;BME280;47645;45.288;12.038;2023-01-26T21:21:15;1013.6739204206173;;;2.354296875;72.67024624291743
61740;BME280;47645;45.288;12.038;2023-01-26T21:31:14;1013.6000904462353;;;2.2830078125;73.10465955946395
61740;BME280;47645;45.288;12.038;2023-01-26T21:42:19;1013.4977473010393;;;2.1912109375;73.05409663103237
61740;BME280;47645;45.288;12.038;2023-01-26T22:01:15;1013.5759291289536;;;2.0486328125;73.16269655408652
61740;BME280;47645;45.288;12.038;2023-01-26T22:11:15;1013.628256737662;;;1.936328125;73.42465036517369
61740;BME280;47645;45.288;12.038;2023-01-26T22:21:15;1013.5310622657084;;;2.0078125;72.73455537670046
61740;BME280;47645;45.288;12.038;2023-01-26T22:31:17;1013.4077933247896;;;1.895703125;72.77280414687947
61740;BME280;47645;45.288;12.038;2023-01-26T22:41:17;1013.3725742459175;;;1.8650390625;71.99229428357191
61740;BME280;47645;45.288;12.038;2023-01-26T22:51:17;1013.3280902275001;;;1.9873046875;71.79527526104626
61740;BME280;47645;45.288;12.038;2023-01-26T23:01:17;1013.2843177810572;;;1.90078125;71.90805402976274
61740;BME280;47645;45.288;12.038;2023-01-26T23:11:18;1013.3011224688262;;;1.9416015625;73.1594380504699
61740;BME280;47645;45.288;12.038;2023-01-26T23:21:16;1013.2541106981222;;;1.9466796875;73.81323054463141
61740;BME280;47645;45.288;12.038;2023-01-26T23:31:17;1013.281767488638;;;1.788671875;72.12133053428052
61740;BME280;47645;45.288;12.038;2023-01-26T23:41:17;1013.2030691809117;;;1.82421875;71.05696664625609
61740;BME280;47645;45.288;12.038;2023-01-26T23:51:17;1013.0922593721564;;;1.798828125;71.35888232421361
